Time;durP1;ratioP1;P1;durP2;ratioP2;P2;SDS_P1;SDS_P2;PMS_P1;PMS_P2;Temp;Humidity;BMP_temperature;BMP_pressure;BME280_temperature;BME280_humidity;BME280_pressure;Samples;Min_cycle;Max_cycle;Signal;HPM_P1;HPM_P2
2022/04/23 00:01:57;;;;;;;2.38;2.17;;;18.80;45.70;;;;;;5073774;28;20158;-85
2022/04/23 00:04:22;;;;;;;2.35;2.15;;;18.70;45.70;;;;;;5073669;28;20181;-86
2022/04/23 00:06:48;;;;;;;2.67;2.47;;;18.80;45.70;;;;;;5057006;28;20173;-86
2022/04/23 00:09:14;;;;;;;2.20;2.00;;;18.70;45.70;;;;;;5074376;28;20608;-85
2022/04/23 00:11:40;;;;;;;2.33;2.10;;;18.70;45.60;;;;;;5073827;28;20161;-85
2022/04/23 00:14:07;;;;;;;2.15;1.95;;;18.70;45.60;;;;;;5056813;28;20200;-86
2022/04/23 00:16:33;;;;;;;2.65;2.22;;;18.70;45.70;;;;;;5073219;28;20248;-85
2022/04/23 00:19:00;;;;;;;2.20;2.00;;;18.70;45.70;;;;;;5072316;28;20162;-86
2022/04/23 00:21:27;;;;;;;2.40;2.20;;;18.70;45.70;;;;;;5055744;28;20715;-85
2022/04/23 00:23:54;;;;;;;2.03;1.90;;;18.70;45.80;;;;;;5072259;28;20276;-86
2022/04/23 00:26:21;;;;;;;2.20;2.00;;;18.70;45.80;;;;;;5055635;28;20181;-86
2022/04/23 00:28:48;;;;;;;2.67;2.17;;;18.70;45.80;;;;;;5055890;28;20177;-86
2022/04/23 00:31:15;;;;;;;2.53;2.33;;;18.70;45.80;;;;;;5072480;28;20242;-86
2022/04/23 00:33:42;;;;;;;2.42;2.10;;;18.60;45.80;;;;;;5038849;28;20235;-85
2022/04/23 00:36:10;;;;;;;2.78;2.20;;;18.70;45.80;;;;;;5055571;28;20185;-85
2022/04/23 00:38:40;;;;;;;2.28;2.08;;;18.70;45.80;;;;;;5038996;28;20177;-86
2022/04/23 00:41:07;;;;;;;2.08;1.88;;;18.70;45.80;;;;;;5055935;28;20185;-86
2022/04/23 00:43:34;;;;;;;2.30;2.10;;;18.70;45.80;;;;;;5071883;28;20594;-86
2022/04/23 00:46:01;;;;;;;2.42;2.22;;;18.70;45.90;;;;;;5071717;28;20217;-86
2022/04/23 00:48:28;;;;;;;2.38;2.17;;;18.70;45.80;;;;;;5055268;28;20643;-86
2022/04/23 00:50:57;;;;;;;2.88;2.17;;;18.70;45.90;;;;;;5055041;28;20232;-86
2022/04/23 00:53:25;;;;;;;2.38;2.10;;;18.70;45.90;;;;;;5055406;28;20232;-86
2022/04/23 00:55:52;;;;;;;2.03;1.88;;;18.60;45.90;;;;;;5038835;28;20258;-86
2022/04/23 00:58:20;;;;;;;2.30;2.10;;;18.60;45.90;;;;;;5071779;28;20177;-86
2022/04/23 01:00:46;;;;;;;2.35;2.00;;;18.60;45.90;;;;;;5038703;28;20177;-86
2022/04/23 01:03:12;;;;;;;2.40;2.17;;;18.60;45.90;;;;;;5055938;28;20552;-86
2022/04/23 01:05:44;;;;;;;2.20;2.00;;;18.70;45.90;;;;;;5039338;28;20173;-85
2022/04/23 01:08:10;;;;;;;2.40;2.03;;;18.70;45.90;;;;;;5039955;28;20174;-86
2022/04/23 01:10:36;;;;;;;2.30;2.10;;;18.70;45.90;;;;;;5072403;28;20162;-85
2022/04/23 01:13:02;;;;;;;2.30;2.10;;;18.70;46.00;;;;;;5055740;28;20211;-85
2022/04/23 01:15:29;;;;;;;2.25;2.05;;;18.60;46.00;;;;;;5072681;28;20200;-85
2022/04/23 01:17:55;;;;;;;2.45;2.00;;;18.60;46.00;;;;;;5056015;28;20565;-86
2022/04/23 01:20:24;;;;;;;2.50;2.00;;;18.60;46.00;;;;;;5072230;28;20158;-86
2022/04/23 01:22:49;;;;;;;2.80;2.13;;;18.60;46.00;;;;;;5056183;28;20165;-86
2022/04/23 01:25:16;;;;;;;2.15;1.95;;;18.60;46.00;;;;;;5071954;28;20315;-86
2022/04/23 01:27:45;;;;;;;2.30;2.05;;;18.60;46.00;;;;;;5072236;28;20165;-86
2022/04/23 01:30:11;;;;;;;2.30;2.10;;;18.60;46.10;;;;;;5055254;28;20188;-87
2022/04/23 01:32:37;;;;;;;2.83;2.28;;;18.60;46.10;;;;;;5055244;28;20158;-86
2022/04/23 01:35:04;;;;;;;2.25;2.00;;;18.60;46.10;;;;;;5055648;28;20244;-85
2022/04/23 01:37:30;;;;;;;2.33;2.10;;;18.60;46.10;;;;;;5073336;28;20156;-86
2022/04/23 01:39:56;;;;;;;2.50;2.10;;;18.60;46.10;;;;;;5071950;28;20616;-87
2022/04/23 01:42:22;;;;;;;2.35;2.15;;;18.60;46.00;;;;;;5072118;28;20639;-85
2022/04/23 01:44:50;;;;;;;2.42;1.98;;;18.60;46.10;;;;;;5073562;28;20161;-86
2022/04/23 01:47:16;;;;;;;2.35;1.90;;;18.60;46.20;;;;;;5055705;28;20179;-86
2022/04/23 01:49:42;;;;;;;2.33;2.13;;;18.60;46.20;;;;;;5055071;28;20217;-86
2022/04/23 01:52:08;;;;;;;2.40;2.20;;;18.60;46.10;;;;;;5038861;28;20528;-86
2022/04/23 01:54:34;;;;;;;2.70;2.15;;;18.60;46.20;;;;;;5055009;28;20195;-86
2022/04/23 01:57:02;;;;;;;2.20;2.00;;;18.50;46.00;;;;;;5071843;28;20153;-86
2022/04/23 01:59:30;;;;;;;2.83;2.30;;;18.50;46.20;;;;;;5037708;28;20209;-85
2022/04/23 02:01:57;;;;;;;2.20;2.00;;;18.50;46.20;;;;;;5054344;28;20612;-86
2022/04/23 02:04:24;;;;;;;2.65;2.28;;;18.50;46.20;;;;;;5037573;28;20177;-86
2022/04/23 02:06:51;;;;;;;2.33;2.13;;;18.50;46.90;;;;;;5037699;28;20749;-86
2022/04/23 02:09:18;;;;;;;2.50;2.28;;;18.50;46.20;;;;;;5054150;28;20185;-86
2022/04/23 02:11:45;;;;;;;3.42;2.20;;;18.60;46.30;;;;;;5054181;28;20181;-86
2022/04/23 02:14:13;;;;;;;2.92;1.90;;;18.50;46.30;;;;;;5037802;28;20216;-85
2022/04/23 02:16:40;;;;;;;2.38;2.05;;;18.50;46.20;;;;;;5054361;28;20177;-86
2022/04/23 02:19:07;;;;;;;2.45;2.03;;;18.50;46.20;;;;;;5054244;28;20181;-86
2022/04/23 02:21:33;;;;;;;2.28;2.08;;;18.50;46.20;;;;;;5037713;28;20226;-86
2022/04/23 02:24:03;;;;;;;2.30;2.10;;;18.50;46.30;;;;;;5071563;28;20218;-86
2022/04/23 02:26:30;;;;;;;2.55;2.22;;;18.50;46.20;;;;;;5072839;28;20156;-85
2022/04/23 02:28:56;;;;;;;2.28;2.08;;;18.50;46.10;;;;;;5054834;28;20631;-85
2022/04/23 02:31:22;;;;;;;2.20;2.00;;;18.40;46.20;;;;;;5071768;28;20166;-86
2022/04/23 02:33:47;;;;;;;2.38;1.90;;;18.50;46.20;;;;;;5071512;28;20226;-86
2022/04/23 02:36:15;;;;;;;2.15;1.95;;;18.50;46.20;;;;;;5071490;28;20621;-86
2022/04/23 02:38:41;;;;;;;2.28;2.08;;;18.50;46.30;;;;;;5071528;28;20150;-85
2022/04/23 02:41:08;;;;;;;2.40;2.10;;;18.50;46.30;;;;;;5055084;28;20157;-86
2022/04/23 02:43:38;;;;;;;3.05;1.98;;;18.50;46.20;;;;;;5040500;28;20189;-85
2022/04/23 02:46:05;;;;;;;2.10;2.00;;;18.50;46.20;;;;;;5059164;28;20161;-85
2022/04/23 02:48:31;;;;;;;2.20;2.00;;;18.50;46.20;;;;;;5057683;28;20260;-85
2022/04/23 02:50:58;;;;;;;2.10;1.90;;;18.50;46.30;;;;;;5058356;28;20277;-85
2022/04/23 02:53:24;;;;;;;2.15;1.95;;;18.50;46.40;;;;;;5075230;28;20196;-85
2022/04/23 02:55:52;;;;;;;2.88;1.95;;;18.50;46.30;;;;;;5058276;28;20175;-85
2022/04/23 02:58:18;;;;;;;2.10;1.98;;;18.50;46.30;;;;;;5074979;28;20150;-86
2022/04/23 03:00:44;;;;;;;2.22;2.03;;;18.40;46.30;;;;;;5058453;28;20296;-85
2022/04/23 03:03:10;;;;;;;2.53;2.17;;;18.50;46.40;;;;;;5058515;28;20609;-85
2022/04/23 03:05:37;;;;;;;2.13;1.92;;;18.30;46.30;;;;;;5058062;28;20189;-85
2022/04/23 03:08:03;;;;;;;2.13;1.92;;;18.40;46.30;;;;;;5058465;28;20643;-85
2022/04/23 03:10:31;;;;;;;2.30;2.10;;;18.40;46.40;;;;;;5074599;28;20211;-85
2022/04/23 03:12:57;;;;;;;2.20;2.00;;;18.40;46.50;;;;;;5057972;28;20201;-85
2022/04/23 03:15:26;;;;;;;2.47;2.10;;;18.40;46.40;;;;;;5074604;28;20153;-85
2022/04/23 03:18:11;;;;;;;2.13;1.88;;;18.40;46.40;;;;;;5058009;28;20165;-86
2022/04/23 03:20:38;;;;;;;3.17;1.83;;;18.40;46.50;;;;;;5076044;28;20161;-86
2022/04/23 03:23:04;;;;;;;1.92;1.80;;;18.40;46.40;;;;;;5074553;28;20241;-86
2022/04/23 03:25:32;;;;;;;2.28;2.08;;;18.40;46.50;;;;;;5057599;28;20165;-86
2022/04/23 03:27:59;;;;;;;2.25;2.05;;;18.50;46.40;;;;;;5075479;28;20169;-85
2022/04/23 03:30:25;;;;;;;2.20;2.00;;;18.40;46.60;;;;;;5057858;28;20256;-85
2022/04/23 03:32:51;;;;;;;2.15;1.95;;;18.40;46.60;;;;;;5057596;28;20248;-85
2022/04/23 03:35:17;;;;;;;2.22;1.90;;;18.40;46.50;;;;;;5074504;28;20158;-85
2022/04/23 03:37:44;;;;;;;2.35;2.13;;;18.40;46.50;;;;;;5057625;28;20158;-85
2022/04/23 03:40:11;;;;;;;2.45;2.25;;;18.40;46.60;;;;;;5074268;28;20181;-85
2022/04/23 03:42:37;;;;;;;2.15;1.95;;;18.40;46.50;;;;;;5074194;28;20158;-86
2022/04/23 03:45:04;;;;;;;2.30;2.03;;;18.30;46.50;;;;;;5074146;28;20179;-86
2022/04/23 03:47:31;;;;;;;2.53;2.08;;;18.40;46.50;;;;;;5074295;28;20212;-86
2022/04/23 03:49:57;;;;;;;2.20;2.00;;;18.40;46.60;;;;;;5073870;28;20220;-86
2022/04/23 03:52:23;;;;;;;2.10;1.90;;;18.40;46.50;;;;;;5057811;28;20154;-86
2022/04/23 03:54:49;;;;;;;2.50;2.13;;;18.40;46.50;;;;;;5057020;28;20186;-86
2022/04/23 03:57:15;;;;;;;1.98;1.80;;;18.40;46.50;;;;;;5074253;28;20154;-86
2022/04/23 03:59:41;;;;;;;2.17;1.98;;;18.40;46.60;;;;;;5056981;28;20169;-85
2022/04/23 04:02:08;;;;;;;2.28;1.98;;;18.40;46.70;;;;;;5057501;28;20211;-86
2022/04/23 04:04:34;;;;;;;2.28;1.92;;;18.40;46.60;;;;;;5056942;28;20638;-85
2022/04/23 04:07:00;;;;;;;2.38;2.10;;;18.40;46.60;;;;;;5074860;28;20176;-86
2022/04/23 04:09:28;;;;;;;2.55;1.80;;;18.40;46.60;;;;;;5057161;28;20177;-85
2022/04/23 04:12:01;;;;;;;2.50;2.30;;;18.40;46.70;;;;;;5056894;28;20169;-85
2022/04/23 04:14:30;;;;;;;1.80;1.70;;;18.40;46.60;;;;;;5057664;28;20192;-86
2022/04/23 04:16:56;;;;;;;2.35;1.83;;;18.40;46.70;;;;;;5057183;28;20219;-86
2022/04/23 04:19:22;;;;;;;2.28;2.08;;;18.40;47.40;;;;;;5056709;28;20215;-86
2022/04/23 04:21:48;;;;;;;2.42;2.00;;;18.30;46.60;;;;;;5073342;28;20165;-87
2022/04/23 04:24:14;;;;;;;2.30;2.10;;;18.30;46.70;;;;;;5073308;28;20252;-86
2022/04/23 04:26:40;;;;;;;2.20;2.00;;;18.30;46.70;;;;;;5056741;28;20599;-85
2022/04/23 04:29:07;;;;;;;2.60;2.08;;;18.30;46.70;;;;;;5074647;28;20193;-86
2022/04/23 04:34:14;;;;;;;2.65;2.03;;;18.30;46.70;;;;;;5074256;28;20647;-86
2022/04/23 04:36:40;;;;;;;2.65;2.08;;;18.30;46.70;;;;;;5073115;28;20158;-85
2022/04/23 04:39:06;;;;;;;2.20;2.00;;;18.30;46.60;;;;;;5072928;28;20158;-85
2022/04/23 04:41:32;;;;;;;2.30;2.10;;;18.30;46.60;;;;;;5073089;28;20687;-86
2022/04/23 04:43:58;;;;;;;3.00;1.98;;;18.40;46.70;;;;;;5057083;28;20279;-85
2022/04/23 04:46:23;;;;;;;1.98;1.88;;;18.30;46.70;;;;;;5056476;28;20210;-86
2022/04/23 04:48:51;;;;;;;2.60;2.10;;;18.40;47.30;;;;;;5072863;28;20236;-86
2022/04/23 04:51:19;;;;;;;1.80;1.70;;;18.40;46.50;;;;;;5072721;28;20213;-87
2022/04/23 04:53:47;;;;;;;2.60;1.73;;;18.40;46.50;;;;;;5055530;28;20232;-87
2022/04/23 04:56:15;;;;;;;2.10;1.90;;;18.40;46.30;;;;;;5072338;28;20177;-85
2022/04/23 04:58:43;;;;;;;2.83;1.88;;;18.40;46.50;;;;;;5055440;28;20173;-86
2022/04/23 05:01:11;;;;;;;3.13;2.10;;;18.40;46.40;;;;;;5055323;28;20647;-85
2022/04/23 05:03:40;;;;;;;2.47;2.08;;;18.50;46.60;;;;;;5055197;28;20675;-86
2022/04/23 05:06:07;;;;;;;1.83;1.73;;;18.40;46.50;;;;;;5054604;28;20192;-86
2022/04/23 05:08:35;;;;;;;2.17;1.83;;;18.50;46.40;;;;;;5055208;28;20295;-86
2022/04/23 05:11:03;;;;;;;2.33;2.13;;;18.50;46.40;;;;;;5055443;28;20197;-86
2022/04/23 05:13:30;;;;;;;2.30;2.03;;;18.60;46.30;;;;;;5071481;28;20821;-85
2022/04/23 05:15:58;;;;;;;2.03;1.83;;;18.50;46.40;;;;;;5038222;28;20509;-88
2022/04/23 05:18:25;;;;;;;1.95;1.83;;;18.50;46.60;;;;;;5054755;28;20652;-86
2022/04/23 05:20:53;;;;;;;2.17;1.98;;;18.50;46.50;;;;;;5071374;28;20182;-86
2022/04/23 05:23:20;;;;;;;2.13;1.90;;;18.50;46.50;;;;;;5054838;28;20185;-87
2022/04/23 05:25:45;;;;;;;2.67;2.10;;;18.50;47.10;;;;;;5071271;28;20181;-87
2022/04/23 05:28:12;;;;;;;2.15;1.83;;;18.50;46.70;;;;;;5072190;28;20593;-86
2022/04/23 05:30:39;;;;;;;1.95;1.83;;;18.50;46.70;;;;;;5038362;28;20200;-86
2022/04/23 05:33:06;;;;;;;2.72;1.77;;;18.50;47.00;;;;;;5038035;28;20367;-86
2022/04/23 05:35:33;;;;;;;2.75;2.00;;;18.60;46.90;;;;;;5054895;28;20181;-87
2022/04/23 05:38:00;;;;;;;2.20;2.00;;;18.60;46.90;;;;;;5072064;28;20161;-87
2022/04/23 05:40:26;;;;;;;2.42;1.90;;;18.70;46.80;;;;;;5055051;28;20189;-86
2022/04/23 05:42:58;;;;;;;2.28;2.08;;;18.60;46.80;;;;;;5055398;28;20168;-85
2022/04/23 05:45:25;;;;;;;1.98;1.80;;;18.60;46.60;;;;;;5072032;28;20181;-87
2022/04/23 05:47:51;;;;;;;2.30;2.10;;;18.60;46.50;;;;;;5055418;28;20172;-86
2022/04/23 05:50:16;;;;;;;3.65;2.13;;;18.60;46.60;;;;;;5071850;28;20220;-86
2022/04/23 05:52:42;;;;;;;2.00;1.90;;;18.60;46.60;;;;;;5055272;28;20173;-85
2022/04/23 05:55:08;;;;;;;1.92;1.80;;;18.60;46.50;;;;;;5071916;28;20203;-86
2022/04/23 05:57:34;;;;;;;2.17;1.98;;;18.60;46.50;;;;;;5073769;28;20197;-85
2022/04/23 06:00:01;;;;;;;2.05;1.90;;;18.70;46.40;;;;;;5055117;28;20231;-86
2022/04/23 06:02:26;;;;;;;4.72;2.20;;;18.70;46.50;;;;;;5055576;28;20161;-86
2022/04/23 06:04:52;;;;;;;2.20;2.00;;;18.70;46.40;;;;;;5055616;28;20191;-86
2022/04/23 06:07:18;;;;;;;3.65;1.80;;;18.60;46.70;;;;;;5055894;28;20188;-85
2022/04/23 06:09:45;;;;;;;1.90;1.70;;;18.70;46.70;;;;;;5072416;28;20175;-86
2022/04/23 06:12:11;;;;;;;2.33;2.13;;;18.80;46.30;;;;;;5055430;28;20215;-86
2022/04/23 06:14:37;;;;;;;3.13;2.30;;;18.70;46.50;;;;;;5071757;28;20197;-86
2022/04/23 06:17:08;;;;;;;1.80;1.70;;;18.70;46.70;;;;;;5074291;28;20176;-86
2022/04/23 06:19:34;;;;;;;1.95;1.85;;;18.70;46.40;;;;;;5059269;28;20249;-86
2022/04/23 06:22:00;;;;;;;1.95;1.83;;;18.80;46.20;;;;;;5076335;28;20230;-87
2022/04/23 06:24:26;;;;;;;3.00;1.92;;;18.70;46.40;;;;;;5076192;28;20238;-86
2022/04/23 06:26:52;;;;;;;2.40;1.90;;;18.70;46.40;;;;;;5058969;28;20165;-86
2022/04/23 06:29:18;;;;;;;2.00;1.80;;;18.70;46.50;;;;;;5058705;28;20275;-86
2022/04/23 06:31:44;;;;;;;2.35;1.60;;;18.70;46.30;;;;;;5058952;28;20534;-86
2022/04/23 06:34:10;;;;;;;3.22;2.25;;;18.70;46.60;;;;;;5058817;28;20247;-86
2022/04/23 06:36:38;;;;;;;3.42;2.03;;;18.80;46.50;;;;;;5059079;28;20184;-87
2022/04/23 06:39:05;;;;;;;4.55;2.05;;;18.80;46.30;;;;;;5058993;28;20517;-85
2022/04/23 06:41:30;;;;;;;8.77;2.13;;;18.80;46.20;;;;;;5042255;28;20189;-85
2022/04/23 06:43:56;;;;;;;3.85;2.00;;;18.80;46.20;;;;;;5075358;28;20189;-87
2022/04/23 06:46:24;;;;;;;3.33;1.90;;;18.70;46.40;;;;;;5041519;28;20204;-83
2022/04/23 06:48:52;;;;;;;3.00;2.28;;;18.70;46.60;;;;;;5041250;28;20216;-84
2022/04/23 06:51:20;;;;;;;2.55;1.83;;;18.80;46.40;;;;;;5074874;28;20680;-86
2022/04/23 06:53:47;;;;;;;1.85;1.75;;;18.90;46.30;;;;;;5058289;28;20209;-86
2022/04/23 06:56:15;;;;;;;1.83;1.60;;;18.80;46.40;;;;;;5042463;28;20232;-86
2022/04/23 06:58:46;;;;;;;2.13;1.92;;;18.90;46.10;;;;;;5058612;28;20205;-85
2022/04/23 07:01:15;;;;;;;3.55;2.00;;;18.90;46.30;;;;;;5041971;28;20260;-86
2022/04/23 07:03:44;;;;;;;3.38;2.00;;;19.00;46.00;;;;;;5041074;28;20181;-87
2022/04/23 07:06:12;;;;;;;3.97;2.05;;;19.00;45.80;;;;;;5041301;28;20273;-84
2022/04/23 07:08:44;;;;;;;5.20;2.20;;;19.00;45.70;;;;;;5074189;28;20195;-86
2022/04/23 07:11:10;;;;;;;5.95;2.20;;;19.10;45.90;;;;;;5074751;28;20188;-84
2022/04/23 07:13:38;;;;;;;8.35;2.17;;;19.10;46.10;;;;;;5058635;28;20181;-86
2022/04/23 07:16:09;;;;;;;5.60;1.85;;;19.10;45.70;;;;;;5041736;28;20177;-85
2022/04/23 07:18:39;;;;;;;7.50;1.92;;;19.20;45.60;;;;;;5057896;28;20254;-85
2022/04/23 07:21:07;;;;;;;6.30;2.00;;;19.10;45.50;;;;;;5057506;28;20272;-86
2022/04/23 07:26:11;;;;;;;3.28;1.95;;;19.20;45.10;;;;;;5058845;28;20181;-86
2022/04/23 07:28:39;;;;;;;4.65;1.80;;;19.30;45.00;;;;;;5056963;28;20165;-83
2022/04/23 07:31:06;;;;;;;4.25;1.92;;;19.40;45.30;;;;;;5040139;28;20189;-87
2022/04/23 07:38:53;;;;;;;3.88;2.10;;;19.40;45.30;;;;;;5059000;28;20708;-85
2022/04/23 07:41:20;;;;;;;5.40;1.80;;;19.40;45.20;;;;;;5056331;28;20264;-84
2022/04/23 07:43:47;;;;;;;4.65;1.90;;;19.40;45.20;;;;;;5056515;28;20271;-86
2022/04/23 07:46:12;;;;;;;5.68;1.83;;;19.30;45.30;;;;;;5072901;28;20185;-85
2022/04/23 07:48:39;;;;;;;4.68;1.95;;;19.30;45.20;;;;;;5073738;28;20226;-84
2022/04/23 07:51:08;;;;;;;2.88;1.98;;;19.30;45.30;;;;;;5039461;28;20217;-83
2022/04/23 07:53:36;;;;;;;2.47;2.10;;;19.30;45.20;;;;;;5056426;28;20679;-84
2022/04/23 07:56:05;;;;;;;4.53;1.90;;;19.30;45.40;;;;;;5057686;28;20261;-85
2022/04/23 07:58:33;;;;;;;6.20;2.13;;;19.30;45.30;;;;;;5040088;28;20184;-84
2022/04/23 08:01:01;;;;;;;1.70;1.50;;;19.30;45.30;;;;;;5055971;28;20181;-84
2022/04/23 08:03:29;;;;;;;5.68;1.83;;;19.40;45.10;;;;;;5040272;28;20181;-85
2022/04/23 08:05:57;;;;;;;5.22;1.85;;;19.40;44.80;;;;;;5056775;28;20630;-85
2022/04/23 08:08:24;;;;;;;7.43;2.30;;;19.40;45.10;;;;;;5056949;28;20189;-85
2022/04/23 08:10:52;;;;;;;3.85;1.75;;;19.40;45.20;;;;;;5042484;28;20262;-85
2022/04/23 08:13:20;;;;;;;5.35;2.05;;;19.40;45.40;;;;;;5056710;28;20221;-85
2022/04/23 08:15:48;;;;;;;5.95;1.80;;;19.40;45.40;;;;;;5040763;28;20173;-84
2022/04/23 08:18:16;;;;;;;3.90;1.85;;;19.40;45.10;;;;;;5056163;28;20181;-85
2022/04/23 08:20:43;;;;;;;3.67;2.00;;;19.40;45.00;;;;;;5056540;28;20380;-86
2022/04/23 08:23:11;;;;;;;8.77;2.00;;;19.40;45.30;;;;;;5039470;28;20240;-85
2022/04/23 08:25:38;;;;;;;5.07;1.75;;;19.40;45.40;;;;;;5057029;28;20177;-85
2022/04/23 08:30:51;;;;;;;5.38;1.83;;;19.50;44.90;;;;;;5058901;28;20300;-85
2022/04/23 08:33:18;;;;;;;4.25;1.92;;;19.60;44.80;;;;;;5041051;28;20555;-85
2022/04/23 08:35:45;;;;;;;7.10;2.00;;;19.60;44.50;;;;;;5061291;28;20261;-86
2022/04/23 08:38:12;;;;;;;5.07;1.80;;;19.60;44.50;;;;;;5060222;28;20181;-85
2022/04/23 08:40:44;;;;;;;3.42;1.60;;;19.70;44.50;;;;;;5055889;28;20592;-84
2022/04/23 08:43:11;;;;;;;3.08;1.90;;;19.70;44.20;;;;;;5056216;28;20193;-84
2022/04/23 08:45:38;;;;;;;3.42;1.77;;;19.70;44.60;;;;;;5055492;28;20185;-82
2022/04/23 08:48:10;;;;;;;4.30;1.92;;;19.70;44.50;;;;;;5038111;28;20177;-85
2022/04/23 08:50:36;;;;;;;8.30;2.00;;;19.60;45.80;;;;;;5055172;28;20217;-84
2022/04/23 08:53:06;;;;;;;2.83;2.00;;;19.60;44.90;;;;;;5057024;28;20233;-84
2022/04/23 08:55:32;;;;;;;4.72;2.15;;;19.70;45.30;;;;;;5074178;28;20663;-87
2022/04/23 08:57:58;;;;;;;6.53;2.15;;;19.70;44.60;;;;;;5072563;28;20165;-84
2022/04/23 09:00:25;;;;;;;3.35;1.90;;;19.70;44.90;;;;;;5076067;28;20218;-84
2022/04/23 09:02:51;;;;;;;4.13;2.00;;;19.60;45.10;;;;;;5074414;28;20150;-85
2022/04/23 09:05:18;;;;;;;3.50;1.70;;;19.60;44.80;;;;;;5074627;28;20195;-87
2022/04/23 09:07:53;;;;;;;5.78;1.70;;;19.70;44.10;;;;;;5056055;28;20583;-86
2022/04/23 09:10:20;;;;;;;1.70;1.60;;;19.70;44.90;;;;;;5073025;28;20149;-86
2022/04/23 09:12:54;;;;;;;5.38;1.95;;;19.70;44.40;;;;;;5073403;28;20520;-85
2022/04/23 09:23:39;;;;;;;5.72;1.90;;;19.70;44.40;;;;;;5076966;28;20213;-84
2022/04/23 09:26:22;;;;;;;6.57;2.05;;;19.70;45.40;;;;;;5074216;28;20149;-85
2022/04/23 09:28:50;;;;;;;2.03;1.80;;;19.60;45.10;;;;;;5074266;28;20245;-87
2022/04/23 09:31:16;;;;;;;5.35;2.22;;;19.60;44.90;;;;;;5075661;28;20497;-85
2022/04/23 09:33:48;;;;;;;4.63;1.73;;;19.60;45.40;;;;;;5075295;28;20197;-85
2022/04/23 09:36:15;;;;;;;4.60;1.83;;;19.60;45.20;;;;;;5060056;28;20536;-85
2022/04/23 09:38:41;;;;;;;2.58;1.90;;;19.60;45.30;;;;;;5077257;28;20553;-85
2022/04/23 09:43:49;;;;;;;4.13;2.13;;;19.50;45.60;;;;;;5073165;28;20158;-85
2022/04/23 09:46:15;;;;;;;9.32;2.10;;;19.50;45.90;;;;;;5074521;28;20174;-87
2022/04/23 09:48:43;;;;;;;5.65;2.00;;;19.50;46.60;;;;;;5074714;28;20161;-85
2022/04/23 09:51:24;;;;;;;3.92;2.00;;;19.40;47.00;;;;;;5072447;28;20232;-85
2022/04/23 09:53:51;;;;;;;6.57;1.83;;;19.50;46.20;;;;;;5074979;28;20536;-84
2022/04/23 09:56:17;;;;;;;10.20;2.53;;;19.50;46.00;;;;;;5076236;28;20161;-86
2022/04/23 09:58:43;;;;;;;4.38;1.70;;;19.50;45.80;;;;;;5058440;28;20255;-85
2022/04/23 10:01:09;;;;;;;8.15;2.25;;;19.50;45.60;;;;;;5074663;28;20157;-86
2022/04/23 10:03:35;;;;;;;10.18;2.13;;;19.50;46.30;;;;;;5073989;28;20661;-86
2022/04/23 10:06:02;;;;;;;8.82;2.10;;;19.40;46.60;;;;;;5074225;28;20223;-86
2022/04/23 10:08:30;;;;;;;3.80;1.80;;;19.40;46.40;;;;;;5057775;28;20653;-86
2022/04/23 10:11:11;;;;;;;7.55;2.05;;;19.40;46.60;;;;;;5074159;28;20188;-86
2022/04/23 10:13:39;;;;;;;12.80;2.40;;;19.40;47.10;;;;;;5057701;28;20269;-85
2022/04/23 10:16:06;;;;;;;10.02;2.00;;;19.40;46.90;;;;;;5057154;28;20169;-86
2022/04/23 10:18:38;;;;;;;7.70;2.20;;;19.40;46.80;;;;;;5057226;28;20173;-86
2022/04/23 10:25:03;;;;;;;9.45;2.17;;;19.40;46.20;;;;;;5073988;28;20203;-85
2022/04/23 10:27:58;;;;;;;4.40;1.83;;;19.40;46.40;;;;;;5076315;28;20181;-85
2022/04/23 10:30:28;;;;;;;4.82;1.88;;;19.50;46.70;;;;;;5005269;28;20257;-84
2022/04/23 10:32:54;;;;;;;6.70;2.00;;;19.40;46.80;;;;;;4961240;28;20180;-83
2022/04/23 10:35:35;;;;;;;8.88;1.90;;;19.40;46.70;;;;;;4962027;28;20275;-85
2022/04/23 10:38:16;;;;;;;5.10;2.20;;;19.40;45.80;;;;;;4994165;28;20360;-86
2022/04/23 10:40:43;;;;;;;7.97;2.10;;;19.40;46.40;;;;;;4960576;28;20180;-86
2022/04/23 10:43:15;;;;;;;6.38;2.03;;;19.40;46.50;;;;;;4975910;28;20558;-86
2022/04/23 10:45:41;;;;;;;10.07;2.20;;;19.40;46.60;;;;;;4980193;28;20586;-87
2022/04/23 10:48:25;;;;;;;7.03;2.03;;;19.40;46.70;;;;;;4979406;28;20184;-87
2022/04/23 10:51:06;;;;;;;6.35;1.75;;;19.40;46.60;;;;;;4980045;28;20785;-86
2022/04/23 10:53:51;;;;;;;4.07;1.70;;;19.40;46.60;;;;;;4978884;28;20199;-85
2022/04/23 10:56:19;;;;;;;5.53;2.20;;;19.40;46.50;;;;;;4976055;28;20284;-86
2022/04/23 10:58:45;;;;;;;8.20;2.33;;;19.40;46.50;;;;;;4976662;28;20164;-86
2022/04/23 11:01:26;;;;;;;6.35;1.83;;;19.40;46.40;;;;;;4984677;28;20175;-86
2022/04/23 11:04:09;;;;;;;7.93;2.10;;;19.40;46.80;;;;;;4998875;28;20581;-86
2022/04/23 11:12:22;;;;;;;8.18;1.95;;;19.30;46.70;;;;;;5079164;28;20161;-85
2022/04/23 11:14:56;;;;;;;9.15;2.15;;;19.40;46.70;;;;;;5063282;28;20604;-85
2022/04/23 11:17:44;;;;;;;2.90;1.85;;;19.30;46.90;;;;;;5044974;28;20251;-85
2022/04/23 11:20:11;;;;;;;3.88;1.70;;;19.30;46.50;;;;;;5079244;28;20161;-85
2022/04/23 11:22:37;;;;;;;7.63;2.05;;;19.40;46.20;;;;;;5077713;28;20550;-84
2022/04/23 11:25:03;;;;;;;9.77;1.83;;;19.30;47.10;;;;;;5075565;28;20227;-86
2022/04/23 11:27:36;;;;;;;4.20;2.10;;;19.40;46.80;;;;;;5074747;28;20519;-85
2022/04/23 11:30:04;;;;;;;4.20;1.50;;;19.40;47.00;;;;;;5074846;28;20165;-85
2022/04/23 11:32:33;;;;;;;5.85;1.80;;;19.30;46.60;;;;;;5077591;28;20153;-87
2022/04/23 11:35:01;;;;;;;4.70;1.80;;;19.40;46.50;;;;;;5080303;28;20211;-86
2022/04/23 11:37:35;;;;;;;7.97;1.98;;;19.30;46.70;;;;;;5077327;28;20150;-86
2022/04/23 11:40:17;;;;;;;2.60;1.80;;;19.30;46.30;;;;;;5061064;28;20264;-86
2022/04/23 11:42:45;;;;;;;4.68;1.70;;;19.40;46.70;;;;;;5076513;28;20162;-85
2022/04/23 11:45:13;;;;;;;5.03;1.70;;;19.30;46.80;;;;;;5076537;28;20154;-86
2022/04/23 11:47:39;;;;;;;5.70;1.80;;;19.30;46.70;;;;;;5074629;28;20192;-85
2022/04/23 11:50:09;;;;;;;7.05;2.10;;;19.30;46.50;;;;;;5075308;28;20216;-88
2022/04/23 11:52:35;;;;;;;7.38;1.80;;;19.30;46.40;;;;;;5060161;28;20149;-87
2022/04/23 11:55:03;;;;;;;4.78;1.65;;;19.30;46.50;;;;;;5074854;28;20192;-85
2022/04/23 11:57:33;;;;;;;5.95;2.10;;;19.30;47.30;;;;;;5039713;28;20295;-86
2022/04/23 12:00:01;;;;;;;5.38;2.10;;;19.40;46.80;;;;;;5072609;28;20575;-87
2022/04/23 12:02:29;;;;;;;3.50;1.95;;;19.40;47.20;;;;;;5056971;28;20187;-85
2022/04/23 12:04:58;;;;;;;3.63;2.10;;;19.30;46.90;;;;;;5056934;28;20185;-86
2022/04/23 12:07:25;;;;;;;5.00;1.90;;;19.40;47.10;;;;;;5072974;28;20212;-86
2022/04/23 12:09:54;;;;;;;2.97;1.75;;;19.30;46.70;;;;;;5056601;28;20173;-86
2022/04/23 12:12:22;;;;;;;2.47;1.60;;;19.30;46.60;;;;;;5073312;28;20173;-86
2022/04/23 12:14:51;;;;;;;3.13;1.50;;;19.40;45.60;;;;;;5056200;28;20209;-86
2022/04/23 12:17:26;;;;;;;4.72;1.70;;;19.40;45.40;;;;;;5057063;28;20189;-86
2022/04/23 12:19:53;;;;;;;3.05;1.60;;;19.40;46.30;;;;;;5040726;28;20180;-86
2022/04/23 12:22:31;;;;;;;3.90;2.03;;;19.50;46.40;;;;;;5057201;28;20161;-86
2022/04/23 12:25:09;;;;;;;5.88;2.10;;;19.40;46.20;;;;;;5057257;28;20187;-85
2022/04/23 12:41:35;;;;;;;5.22;1.80;;;19.40;47.10;;;;;;5074123;28;20160;-85
2022/04/23 12:44:17;;;;;;;3.10;1.80;;;19.40;46.90;;;;;;5075478;28;20154;-86
2022/04/23 12:47:00;;;;;;;4.40;1.90;;;19.40;47.00;;;;;;5073866;28;20173;-86
2022/04/23 12:49:48;;;;;;;4.95;1.65;;;19.40;46.90;;;;;;5073221;28;20246;-86
2022/04/23 12:52:16;;;;;;;3.42;1.60;;;19.40;46.90;;;;;;5062670;28;20189;-85
2022/04/23 12:55:10;;;;;;;2.78;1.70;;;19.40;46.70;;;;;;5077580;28;20192;-85
2022/04/23 12:57:36;;;;;;;4.88;1.95;;;19.40;47.20;;;;;;5072926;28;20170;-87
2022/04/23 13:00:03;;;;;;;18.30;2.88;;;19.30;46.80;;;;;;5073639;28;20184;-85
2022/04/23 13:02:37;;;;;;;7.03;2.08;;;19.40;45.70;;;;;;5075509;28;20154;-87
2022/04/23 13:05:05;;;;;;;8.95;2.30;;;19.40;45.90;;;;;;5058070;28;20169;-85
2022/04/23 13:10:15;;;;;;;8.68;2.20;;;19.40;45.70;;;;;;5073567;28;20662;-85
2022/04/23 13:12:45;;;;;;;11.07;2.20;;;19.40;45.80;;;;;;5078357;28;20162;-86
2022/04/23 13:15:11;;;;;;;11.73;2.60;;;19.30;46.20;;;;;;5077043;28;20213;-85
2022/04/23 13:17:38;;;;;;;7.03;2.45;;;19.40;45.60;;;;;;5077450;28;20542;-85
2022/04/23 13:20:07;;;;;;;5.32;2.10;;;19.40;46.10;;;;;;5060021;28;20249;-86
2022/04/23 13:22:33;;;;;;;5.00;2.10;;;19.40;45.60;;;;;;5075241;28;20642;-85
2022/04/23 13:24:59;;;;;;;6.97;1.88;;;19.40;46.00;;;;;;5075619;28;20198;-86
2022/04/23 13:27:25;;;;;;;9.23;1.90;;;19.40;44.80;;;;;;5076625;28;20616;-86
2022/04/23 13:29:52;;;;;;;10.88;2.30;;;19.40;45.30;;;;;;5075605;28;20195;-85
2022/04/23 13:32:18;;;;;;;10.52;2.15;;;19.40;45.90;;;;;;5075466;28;20150;-86
2022/04/23 13:34:44;;;;;;;8.23;2.10;;;19.40;46.20;;;;;;5075881;28;20192;-85
2022/04/23 13:37:14;;;;;;;9.73;2.20;;;19.40;46.00;;;;;;5059547;28;20173;-87
2022/04/23 13:39:44;;;;;;;8.32;2.10;;;19.50;45.30;;;;;;5075431;28;20196;-86
2022/04/23 13:42:14;;;;;;;7.25;2.10;;;19.40;45.50;;;;;;5042874;28;20185;-85